Weather at Riverview Airport [CLOSED]

Public forecast

Using degrees Fahrenheit for public forecast. Weather courtesy of forecast.io.

Closest aviation weather report (METAR) to Riverview Airport

Closest report is Lackland Air Force Base, 6.4 nm (11.8 km) N.

2024/07/18 17:34 (retrieved 8 minutes ago)

KSKF 181734Z AUTO 03008G15KT 10SM FEW060 SCT075 SCT150 26/22 A3010 RMK AO2 RAE20DZB20E24 SLP185

Closest aviation forecast (TAF) to Riverview Airport

Closest forecast is Lackland Air Force Base, 6.4 nm (11.8 km) N.

2024/07/18 15:00 Ammendment (retrieved 3 hours ago)

TAF AMD KSKF 181537Z 1815/1916 15005KT 9999 SCT050 BKN250 QNH2998INS BECMG 1815/1816 36010G15KT 9000 -SHRA VCTS SCT025 BKN040CB BKN120 QNH2993INS TEMPO 1816/1820 36015G30KT 4800 TSRA SCT010 OVC025CB BECMG 1822/1823 04006KT 9999 VCSH BKN050 BKN100 QNH2992INS BECMG 1904/1905 09003KT 9999 NSW SCT050 BKN100 QNH2997INS BECMG 1911/1912 06006KT 9999 FEW050 QNH2998INS TX35/1823Z TN23/1912Z